Главная страница
METAR-TAF:

METAR-TAF

Аэропорты :

Винница, Украина

широта: 49-14-23N, долгота: 028-36-50E, высота над уровнем моря: 974 м

Текущие метеонаблюдения

Эта сводка был подготовлена 22 минут назад, в 02:30 UTC
Ветер 4 Узел от западный-юго-западный
Температура 17°C
Влажность 94%
Давление 1015 hPa
Видимость: 9000 м

METAR: UKWW 210230Z 25002MPS 9000 NSC 17/16 Q1015 R31/0///65 NOSIG

Время: 05:52 (02:52 UTC)

Прогноз

Эта сводка был подготовлена 42 минут назад, в 02:10 UTC
Прогноз действительный с 21-го 03 UTC до 21-го 12 UTC
Ветер 2 Узел переменных направлений
Видимость 10 км и более
Отдельные облака на высоте 3000 фута
временами
С 21-го 03 UTC до 21-го 06 UTC
Видимость: 2000 м
Отдельные облака на высоте 800 фута
дымка
временами
С 21-го 09 UTC до 21-го 12 UTC
Рассеянная облачность на высоте 1500 фута, Кучево-дождевые.
небольшие ливневые дожди

TAF: UKWW 210210Z 2103/2112 VRB01MPS 9999 SCT030 TX28/2112Z TN16/2103Z TEMPO 2103/2106 2000 BR SCT008 TEMPO 2109/2112 -SHRA BKN015CB

Метеонаблюдения и прогнозы для более 4000 аэропортов (сводки METAR и TAF).

Имеющиеся станции представлены на карте желтыми и красными точками.

Чтобы увидеть название станции, наведите на нее мышь.

Затем щелкните, чтобы увидеть метеонаблюдения и метеопрогнозы.

Управление картой: чтобы увеличить масштаб, щелкните зеленые кнопки с черным крестиком; чтобы уменьшить масштаб, щелкните зеленую кнопку с тире; для просмотра соседних карт щелкайте зеленые стрелки.


METAR-TAF: